createdAt,value
2019-06-20T00:02:28.393Z,99.90
2019-06-20T00:04:58.131Z,99.90
2019-06-20T00:07:28.132Z,99.90
2019-06-20T00:09:57.816Z,99.90
2019-06-20T00:12:27.839Z,99.90
2019-06-20T00:14:57.870Z,99.90
2019-06-20T00:17:28.465Z,99.90
2019-06-20T00:19:58.171Z,99.90
2019-06-20T00:22:27.940Z,99.90
2019-06-20T00:24:57.747Z,99.90
2019-06-20T00:27:27.571Z,99.90
2019-06-20T00:29:57.441Z,99.90
2019-06-20T00:32:27.652Z,99.90
2019-06-20T00:34:57.309Z,99.90
2019-06-20T00:37:27.126Z,99.90
2019-06-20T00:39:57.083Z,99.90
2019-06-20T00:42:27.024Z,99.90
2019-06-20T00:44:56.797Z,99.90
2019-06-20T00:47:27.360Z,99.90
2019-06-20T00:49:57.097Z,99.90
2019-06-20T00:52:27.056Z,99.90
2019-06-20T00:54:56.937Z,99.90
2019-06-20T00:57:27.768Z,99.90
2019-06-20T00:59:58.088Z,99.90
2019-06-20T01:02:28.043Z,99.90
2019-06-20T01:04:57.926Z,99.90
2019-06-20T01:07:27.685Z,99.90
2019-06-20T01:09:57.527Z,99.90
2019-06-20T01:12:27.312Z,99.90
2019-06-20T01:14:57.326Z,99.90
2019-06-20T01:17:27.146Z,99.90
2019-06-20T01:19:58.308Z,99.90
2019-06-20T01:22:28.248Z,99.90
2019-06-20T01:24:59.095Z,99.90
2019-06-20T01:27:29.024Z,99.90
2019-06-20T01:29:58.983Z,99.90
2019-06-20T01:32:29.357Z,99.90
2019-06-20T01:34:59.118Z,99.90
2019-06-20T01:37:29.002Z,99.90
2019-06-20T01:39:58.869Z,99.90
2019-06-20T01:42:28.745Z,99.90
2019-06-20T01:44:58.389Z,99.90
2019-06-20T01:47:28.204Z,99.90
2019-06-20T01:49:57.915Z,99.90
2019-06-20T01:52:27.759Z,99.90
2019-06-20T01:54:57.588Z,99.90
2019-06-20T01:57:27.311Z,99.90
2019-06-20T01:59:57.033Z,99.90
2019-06-20T02:02:26.854Z,99.90
2019-06-20T02:04:56.591Z,99.90
2019-06-20T02:07:28.247Z,99.90
2019-06-20T02:09:57.563Z,99.90
2019-06-20T02:12:27.510Z,99.90
2019-06-20T02:14:57.716Z,99.90
2019-06-20T02:17:27.520Z,99.90
2019-06-20T02:19:57.591Z,99.90
2019-06-20T02:22:27.408Z,99.90
2019-06-20T02:24:57.132Z,99.90
2019-06-20T02:27:26.812Z,99.90
2019-06-20T02:29:56.685Z,99.90
2019-06-20T02:32:26.539Z,99.90
2019-06-20T02:34:56.256Z,99.90
2019-06-20T02:37:26.129Z,99.90
2019-06-20T02:39:55.983Z,99.90
2019-06-20T02:42:25.750Z,99.90
2019-06-20T02:44:55.705Z,99.90
2019-06-20T02:47:25.571Z,99.90
2019-06-20T02:49:55.442Z,99.90
2019-06-20T02:52:25.338Z,99.90
2019-06-20T02:54:55.657Z,99.90
2019-06-20T02:57:25.414Z,99.90
2019-06-20T02:59:55.106Z,99.90
2019-06-20T03:02:25.166Z,99.90
2019-06-20T03:04:54.934Z,99.90
2019-06-20T03:07:24.916Z,99.90
2019-06-20T03:09:54.900Z,99.90
2019-06-20T03:12:24.810Z,99.90
2019-06-20T03:14:55.886Z,99.90
2019-06-20T03:17:25.592Z,99.90
2019-06-20T03:19:55.665Z,99.90
2019-06-20T03:22:25.632Z,99.90
2019-06-20T03:24:55.400Z,99.90
2019-06-20T03:27:25.074Z,99.90
2019-06-20T03:29:54.747Z,99.90
2019-06-20T03:32:24.441Z,99.90
2019-06-20T03:34:54.158Z,99.90
2019-06-20T03:37:24.137Z,99.90
2019-06-20T03:39:53.819Z,99.90
2019-06-20T03:42:23.541Z,99.90
2019-06-20T03:45:02.157Z,99.90
2019-06-20T03:47:24.650Z,99.90
2019-06-20T03:49:54.281Z,99.90
2019-06-20T03:52:23.955Z,99.90
2019-06-20T03:54:53.772Z,99.90
2019-06-20T03:57:23.502Z,99.90
2019-06-20T03:59:53.221Z,99.90
2019-06-20T04:02:23.103Z,99.90
2019-06-20T04:04:53.285Z,99.90
2019-06-20T04:07:23.037Z,99.90
2019-06-20T04:09:52.950Z,99.90
2019-06-20T04:12:23.218Z,99.90
2019-06-20T04:14:52.965Z,99.90
2019-06-20T04:17:22.681Z,99.90
2019-06-20T04:19:53.014Z,99.90
2019-06-20T04:22:23.044Z,99.90
2019-06-20T04:24:52.817Z,99.90
2019-06-20T04:27:22.886Z,99.90
2019-06-20T04:29:52.462Z,99.90
2019-06-20T04:32:22.874Z,99.90
2019-06-20T04:34:52.521Z,99.90
2019-06-20T04:37:22.151Z,99.90
2019-06-20T04:39:52.147Z,99.90
2019-06-20T04:42:21.805Z,99.90
2019-06-20T04:44:53.071Z,99.90
2019-06-20T04:47:22.980Z,99.90
2019-06-20T04:49:52.733Z,99.90
2019-06-20T04:52:22.493Z,99.90
2019-06-20T04:54:52.359Z,99.90
2019-06-20T04:57:22.473Z,99.90
2019-06-20T04:59:53.623Z,99.90
2019-06-20T05:02:24.899Z,99.90
2019-06-20T05:04:54.644Z,99.90
2019-06-20T05:07:24.646Z,99.90
2019-06-20T05:09:54.358Z,99.90
2019-06-20T05:12:24.145Z,99.90
2019-06-20T05:14:54.191Z,99.90
2019-06-20T05:17:24.174Z,99.90
2019-06-20T05:19:55.181Z,99.90
2019-06-20T05:22:25.294Z,99.90
2019-06-20T05:24:55.458Z,99.90
2019-06-20T05:27:25.324Z,99.90
2019-06-20T05:29:54.954Z,99.90
2019-06-20T05:32:25.040Z,99.90
2019-06-20T05:34:55.022Z,99.90
2019-06-20T05:37:25.953Z,99.90
2019-06-20T05:39:55.894Z,99.90
2019-06-20T05:42:25.653Z,99.90
2019-06-20T05:44:55.456Z,99.90
2019-06-20T05:47:26.919Z,99.90
2019-06-20T05:49:56.946Z,99.90
2019-06-20T05:52:26.764Z,99.90
2019-06-20T05:54:57.687Z,99.90
2019-06-20T05:57:27.493Z,99.90
2019-06-20T05:59:57.302Z,99.90
2019-06-20T06:02:26.981Z,99.90
2019-06-20T06:04:56.856Z,99.90
2019-06-20T06:07:27.138Z,99.90
2019-06-20T06:09:58.166Z,99.90
2019-06-20T06:12:28.312Z,99.90
2019-06-20T06:15:00.859Z,99.90
2019-06-20T06:17:30.399Z,99.90
2019-06-20T06:20:01.652Z,99.90
2019-06-20T06:22:31.650Z,99.90
2019-06-20T06:25:01.693Z,99.90
2019-06-20T06:27:33.305Z,99.90
2019-06-20T06:30:04.263Z,99.90
2019-06-20T06:32:40.050Z,99.90
2019-06-20T06:35:06.625Z,99.90
2019-06-20T06:37:36.458Z,99.90
2019-06-20T06:40:10.846Z,99.90
2019-06-20T06:42:41.019Z,99.90
2019-06-20T06:45:11.191Z,99.90
2019-06-20T06:47:42.729Z,99.90
2019-06-20T06:50:13.780Z,99.90
2019-06-20T06:52:43.931Z,99.90
2019-06-20T06:55:15.760Z,99.90
2019-06-20T06:57:45.792Z,99.90
2019-06-20T07:00:15.639Z,99.90
2019-06-20T07:02:46.747Z,99.90
2019-06-20T07:05:19.473Z,99.90
2019-06-20T07:07:49.859Z,99.90
2019-06-20T07:10:21.288Z,99.90
2019-06-20T07:12:51.283Z,99.90
2019-06-20T07:15:21.595Z,99.90
2019-06-20T07:17:52.075Z,99.90
2019-06-20T07:20:22.003Z,99.90
2019-06-20T07:22:52.003Z,99.90
2019-06-20T07:25:22.202Z,99.90
2019-06-20T07:27:53.569Z,99.90
2019-06-20T07:30:23.561Z,99.90
2019-06-20T07:32:53.520Z,99.90
2019-06-20T07:35:24.855Z,99.90
2019-06-20T07:37:54.860Z,99.90
2019-06-20T07:40:25.149Z,99.90
2019-06-20T07:42:55.113Z,99.90
2019-06-20T07:45:27.368Z,99.90
2019-06-20T07:47:57.049Z,99.90
2019-06-20T07:50:26.950Z,99.90
2019-06-20T07:53:01.822Z,99.90
2019-06-20T07:55:29.162Z,99.90
2019-06-20T07:57:59.151Z,99.90
2019-06-20T08:00:29.510Z,99.90
2019-06-20T08:02:59.621Z,99.90
2019-06-20T08:05:29.622Z,99.90
2019-06-20T08:07:59.508Z,99.90
2019-06-20T08:10:29.306Z,99.90
2019-06-20T08:12:59.296Z,99.90
2019-06-20T08:15:29.098Z,99.90
2019-06-20T08:17:58.917Z,99.90
2019-06-20T08:20:28.892Z,99.90
2019-06-20T08:22:58.739Z,99.90
2019-06-20T08:25:28.628Z,99.90
2019-06-20T08:27:59.440Z,99.90
2019-06-20T08:30:30.805Z,99.90
2019-06-20T08:33:03.576Z,99.90
2019-06-20T08:35:32.078Z,99.90
2019-06-20T08:38:03.637Z,99.90
2019-06-20T08:40:34.077Z,99.90
2019-06-20T08:43:04.189Z,99.90
2019-06-20T08:45:34.114Z,99.90
2019-06-20T08:48:04.748Z,99.90
2019-06-20T08:50:34.582Z,99.90
2019-06-20T08:53:05.838Z,99.90
2019-06-20T08:55:36.197Z,99.90
2019-06-20T08:58:05.988Z,99.90
2019-06-20T09:00:36.131Z,99.90
2019-06-20T09:03:07.783Z,99.90
2019-06-20T09:05:37.949Z,99.90
2019-06-20T09:08:11.331Z,99.90
2019-06-20T09:10:40.426Z,99.90
2019-06-20T09:13:10.894Z,99.90
2019-06-20T09:15:40.625Z,99.90
2019-06-20T09:18:10.482Z,99.90
2019-06-20T09:20:40.316Z,99.90
2019-06-20T09:23:10.273Z,99.90
2019-06-20T09:25:40.126Z,99.90
2019-06-20T09:28:10.399Z,99.90
2019-06-20T09:30:40.370Z,99.90
2019-06-20T09:33:10.407Z,99.90
2019-06-20T09:35:40.323Z,99.90
2019-06-20T09:38:10.300Z,99.90
2019-06-20T09:40:41.224Z,99.90
2019-06-20T09:43:11.229Z,99.90
2019-06-20T09:45:41.143Z,99.90
2019-06-20T09:48:11.224Z,99.90
2019-06-20T09:50:41.110Z,99.90
2019-06-20T09:53:10.848Z,99.90
2019-06-20T09:55:41.664Z,99.90
2019-06-20T09:58:11.609Z,99.90
2019-06-20T10:00:41.500Z,99.90
2019-06-20T10:03:11.530Z,99.90
2019-06-20T10:05:41.279Z,99.90
2019-06-20T10:08:11.042Z,99.90
2019-06-20T10:10:41.048Z,99.90
2019-06-20T10:13:10.994Z,99.90
2019-06-20T10:15:41.741Z,99.90
2019-06-20T10:18:11.931Z,99.90
2019-06-20T10:20:42.023Z,99.90
2019-06-20T10:23:12.056Z,99.90
2019-06-20T10:25:41.795Z,99.90
2019-06-20T10:28:11.708Z,99.90
2019-06-20T10:30:41.636Z,99.90
2019-06-20T10:33:12.900Z,99.90
2019-06-20T10:35:45.132Z,99.90
2019-06-20T10:38:14.248Z,99.90
2019-06-20T10:40:46.066Z,99.90
2019-06-20T10:43:15.675Z,99.90
2019-06-20T10:45:45.810Z,99.90
2019-06-20T10:48:15.807Z,99.90
2019-06-20T10:50:45.860Z,99.90
2019-06-20T10:53:15.850Z,99.90
2019-06-20T10:55:46.943Z,99.90
2019-06-20T10:58:18.127Z,99.90
2019-06-20T11:00:48.355Z,99.90
2019-06-20T11:03:19.763Z,99.90
2019-06-20T11:05:50.948Z,99.90
2019-06-20T11:08:20.732Z,99.90
2019-06-20T11:10:50.624Z,99.90
2019-06-20T11:13:20.991Z,99.90
2019-06-20T11:15:53.035Z,98.90
2019-06-20T11:18:22.974Z,99.40
2019-06-20T11:20:52.957Z,96.50
2019-06-20T11:23:22.788Z,97.20
2019-06-20T11:25:52.718Z,97.40
2019-06-20T11:28:23.210Z,98.30
2019-06-20T11:30:59.944Z,98.00
2019-06-20T11:33:25.252Z,98.20
2019-06-20T11:35:55.434Z,97.30
2019-06-20T11:38:25.565Z,96.70
2019-06-20T11:40:55.401Z,96.90
2019-06-20T11:43:27.645Z,95.80
2019-06-20T11:45:58.270Z,95.50
2019-06-20T11:48:28.377Z,96.30
2019-06-20T11:50:58.068Z,94.30
2019-06-20T11:53:27.977Z,93.50
2019-06-20T11:55:57.758Z,93.80
2019-06-20T11:58:27.694Z,91.30
2019-06-20T12:01:03.490Z,91.10
2019-06-20T12:03:28.819Z,87.80
2019-06-20T12:05:58.844Z,90.90
2019-06-20T12:08:28.789Z,92.00
2019-06-20T12:10:58.912Z,93.40
2019-06-20T12:13:28.912Z,90.60
2019-06-20T12:15:58.916Z,90.80
2019-06-20T12:18:28.693Z,89.30
2019-06-20T12:20:58.608Z,88.60
2019-06-20T12:23:28.624Z,87.80
2019-06-20T12:25:58.854Z,88.30
2019-06-20T12:28:29.220Z,83.10
2019-06-20T12:30:59.158Z,83.00
2019-06-20T12:33:29.014Z,79.10
2019-06-20T12:35:58.972Z,76.70
2019-06-20T12:38:28.813Z,76.40
2019-06-20T12:40:59.742Z,75.00
2019-06-20T12:43:29.859Z,73.30
2019-06-20T12:45:59.742Z,72.00
2019-06-20T12:48:29.670Z,71.20
2019-06-20T12:50:59.428Z,68.30
2019-06-20T12:53:29.615Z,67.70
2019-06-20T12:55:59.412Z,67.70
2019-06-20T12:58:29.480Z,68.10
2019-06-20T13:00:59.443Z,66.80
2019-06-20T13:03:29.033Z,65.90
2019-06-20T13:05:58.930Z,64.40
2019-06-20T13:08:29.032Z,65.10
2019-06-20T13:10:59.141Z,64.80
2019-06-20T13:13:29.585Z,62.90
2019-06-20T13:16:01.358Z,61.80
2019-06-20T13:18:31.666Z,61.10
2019-06-20T13:21:01.740Z,63.10
2019-06-20T13:23:31.971Z,63.70
2019-06-20T13:26:01.909Z,63.20
2019-06-20T13:28:31.730Z,64.40
2019-06-20T13:31:01.606Z,66.40
2019-06-20T13:33:31.459Z,66.20
2019-06-20T13:36:01.381Z,66.60
2019-06-20T13:38:31.433Z,67.80
2019-06-20T13:41:01.390Z,69.60
2019-06-20T13:43:31.362Z,67.00
2019-06-20T13:46:01.411Z,64.50
2019-06-20T13:48:31.104Z,65.10
2019-06-20T13:51:00.891Z,63.60
2019-06-20T13:53:31.131Z,64.80
2019-06-20T13:56:00.875Z,65.30
2019-06-20T13:58:30.801Z,64.30
2019-06-20T14:01:00.432Z,64.10
2019-06-20T14:03:30.516Z,64.80
2019-06-20T14:06:00.675Z,65.30
2019-06-20T14:08:30.418Z,63.80
2019-06-20T14:11:00.415Z,61.90
2019-06-20T14:13:30.568Z,64.10
2019-06-20T14:16:00.788Z,62.60
2019-06-20T14:18:30.768Z,63.60
2019-06-20T14:21:00.775Z,63.40
2019-06-20T14:23:30.736Z,62.40
2019-06-20T14:26:00.635Z,61.90
2019-06-20T14:28:30.767Z,62.20
2019-06-20T14:31:00.739Z,60.00
2019-06-20T14:33:31.936Z,61.30
2019-06-20T14:36:02.497Z,62.70
2019-06-20T14:38:32.508Z,63.00
2019-06-20T14:41:02.296Z,64.00
2019-06-20T14:43:32.459Z,62.70
2019-06-20T14:46:02.455Z,62.20
2019-06-20T14:48:32.335Z,62.40
2019-06-20T14:51:02.027Z,62.70
2019-06-20T14:53:32.015Z,60.20
2019-06-20T14:56:01.886Z,60.80
2019-06-20T14:58:31.910Z,61.60
2019-06-20T15:01:02.367Z,62.30
2019-06-20T15:03:32.280Z,62.10
2019-06-20T15:06:02.257Z,61.70
2019-06-20T15:08:32.213Z,62.70
2019-06-20T15:11:02.211Z,63.40
2019-06-20T15:13:32.277Z,62.70
2019-06-20T15:16:02.160Z,63.70
2019-06-20T15:18:32.180Z,66.00
2019-06-20T15:21:02.415Z,64.90
2019-06-20T15:23:32.429Z,67.20
2019-06-20T15:26:02.424Z,68.30
2019-06-20T15:28:32.342Z,66.90
2019-06-20T15:31:02.228Z,68.20
2019-06-20T15:33:32.482Z,70.30
2019-06-20T15:36:02.444Z,72.80
2019-06-20T15:38:32.508Z,74.70
2019-06-20T15:41:02.521Z,77.10
2019-06-20T15:43:32.891Z,76.70
2019-06-20T15:46:03.307Z,75.30
2019-06-20T15:48:33.152Z,77.10
2019-06-20T15:51:03.191Z,75.30
2019-06-20T15:53:33.349Z,76.60
2019-06-20T15:56:03.423Z,77.00
2019-06-20T15:58:33.960Z,78.50
2019-06-20T16:01:03.932Z,77.70
2019-06-20T16:03:33.968Z,73.60
2019-06-20T16:06:04.574Z,70.40
2019-06-20T16:08:34.859Z,69.40
2019-06-20T16:11:04.934Z,71.10
2019-06-20T16:13:35.431Z,72.30
2019-06-20T16:16:05.403Z,71.50
2019-06-20T16:18:35.273Z,72.50
2019-06-20T16:21:05.467Z,69.20
2019-06-20T16:23:35.608Z,67.80
2019-06-20T16:26:05.791Z,67.40
2019-06-20T16:28:36.568Z,63.90
2019-06-20T16:31:10.272Z,64.30
2019-06-20T16:33:38.522Z,65.70
2019-06-20T16:36:08.432Z,64.00
2019-06-20T16:38:38.960Z,65.50
2019-06-20T16:41:09.089Z,64.50
2019-06-20T16:43:39.288Z,63.60
2019-06-20T16:46:09.209Z,63.80
2019-06-20T16:48:39.653Z,64.90
2019-06-20T16:51:10.249Z,65.40
2019-06-20T16:53:40.485Z,66.60
2019-06-20T16:56:10.526Z,66.80
2019-06-20T16:58:40.709Z,68.70
2019-06-20T17:01:10.513Z,68.80
2019-06-20T17:03:42.049Z,71.20
2019-06-20T17:06:14.845Z,70.90
2019-06-20T17:08:44.774Z,69.10
2019-06-20T17:11:14.670Z,69.10
2019-06-20T17:13:44.625Z,68.80
2019-06-20T17:16:15.688Z,67.40
2019-06-20T17:18:45.763Z,67.00
2019-06-20T17:21:15.595Z,68.50
2019-06-20T17:23:45.545Z,71.80
2019-06-20T17:26:15.438Z,71.40
2019-06-20T17:28:45.507Z,70.20
2019-06-20T17:31:15.424Z,68.90
2019-06-20T17:33:57.120Z,70.00
2019-06-20T17:36:18.611Z,67.20
2019-06-20T17:38:48.512Z,67.30
2019-06-20T17:41:18.451Z,66.70
2019-06-20T17:43:48.492Z,67.40
2019-06-20T17:46:18.365Z,68.50
2019-06-20T17:48:48.944Z,68.40
2019-06-20T17:51:18.937Z,69.00
2019-06-20T17:53:49.691Z,69.10
2019-06-20T17:56:19.746Z,70.60
2019-06-20T17:58:51.182Z,68.40
2019-06-20T18:01:21.682Z,67.00
2019-06-20T18:03:51.787Z,67.60
2019-06-20T18:06:21.631Z,67.10
2019-06-20T18:08:51.445Z,68.40
2019-06-20T18:11:21.453Z,68.50
2019-06-20T18:13:53.447Z,68.60
2019-06-20T18:16:25.293Z,68.20
2019-06-20T18:18:54.844Z,67.70
2019-06-20T18:21:25.018Z,67.90
2019-06-20T18:23:55.261Z,70.20
2019-06-20T18:26:26.017Z,69.40
2019-06-20T18:28:55.770Z,68.50
2019-06-20T18:31:25.870Z,72.60
2019-06-20T18:33:55.892Z,75.40
2019-06-20T18:36:26.055Z,76.00
2019-06-20T18:38:56.087Z,76.00
2019-06-20T18:41:25.968Z,74.80
2019-06-20T18:43:55.918Z,76.70
2019-06-20T18:46:25.646Z,76.20
2019-06-20T18:48:55.719Z,77.50
2019-06-20T18:51:25.687Z,79.60
2019-06-20T18:53:55.786Z,78.30
2019-06-20T18:56:25.884Z,79.80
2019-06-20T18:58:55.887Z,79.50
2019-06-20T19:01:25.887Z,81.20
2019-06-20T19:03:56.071Z,80.80
2019-06-20T19:06:35.386Z,81.30
2019-06-20T19:08:57.672Z,81.80
2019-06-20T19:11:27.695Z,83.00
2019-06-20T19:13:57.596Z,82.90
2019-06-20T19:16:27.572Z,84.80
2019-06-20T19:18:57.473Z,85.30
2019-06-20T19:21:27.972Z,87.80
2019-06-20T19:23:59.082Z,88.20
2019-06-20T19:26:29.134Z,90.00
2019-06-20T19:28:59.124Z,90.60
2019-06-20T19:31:30.219Z,90.70
2019-06-20T19:34:00.225Z,91.50
2019-06-20T19:36:30.232Z,91.70
2019-06-20T19:39:00.229Z,92.00
2019-06-20T19:41:30.510Z,92.40
2019-06-20T19:44:00.783Z,92.60
2019-06-20T19:46:30.763Z,92.80
2019-06-20T19:49:00.615Z,92.90
2019-06-20T19:51:31.625Z,93.30
2019-06-20T19:54:01.864Z,93.30
2019-06-20T19:56:32.089Z,93.90
2019-06-20T19:59:03.613Z,94.10
2019-06-20T20:01:34.277Z,94.70
2019-06-20T20:04:04.615Z,94.60
2019-06-20T20:06:35.868Z,94.40
2019-06-20T20:09:06.940Z,94.40
2019-06-20T20:11:37.575Z,94.80
2019-06-20T20:14:08.519Z,94.90
2019-06-20T20:16:38.930Z,95.20
2019-06-20T20:19:09.039Z,95.10
2019-06-20T20:21:39.473Z,95.40
2019-06-20T20:24:10.339Z,95.60
2019-06-20T20:26:41.604Z,95.60
2019-06-20T20:29:12.114Z,95.50
2019-06-20T20:31:42.719Z,95.50
2019-06-20T20:34:13.414Z,95.70
2019-06-20T20:36:44.537Z,95.60
2019-06-20T20:39:17.118Z,95.60
2019-06-20T20:41:47.342Z,95.50
2019-06-20T20:44:17.551Z,95.50
2019-06-20T20:46:48.938Z,95.70
2019-06-20T20:49:19.145Z,95.70
2019-06-20T20:51:49.278Z,95.50
2019-06-20T20:54:19.260Z,95.50
2019-06-20T20:56:49.193Z,95.50
2019-06-20T20:59:18.967Z,95.00
2019-06-20T21:01:49.131Z,95.10
2019-06-20T21:04:19.057Z,95.10
2019-06-20T21:06:50.493Z,95.10
2019-06-20T21:09:20.697Z,95.10
2019-06-20T21:11:51.161Z,94.90
2019-06-20T21:14:21.109Z,94.80
2019-06-20T21:16:51.692Z,94.80
2019-06-20T21:19:21.732Z,94.80
2019-06-20T21:21:51.789Z,95.00
2019-06-20T21:24:21.860Z,95.10
2019-06-20T21:26:51.665Z,95.20
2019-06-20T21:29:22.435Z,95.20
2019-06-20T21:31:52.290Z,95.00
2019-06-20T21:34:22.275Z,95.10
2019-06-20T21:36:52.317Z,95.00
2019-06-20T21:39:21.961Z,95.10
2019-06-20T21:41:51.818Z,95.00
2019-06-20T21:44:21.863Z,95.10
2019-06-20T21:46:51.759Z,95.00
2019-06-20T21:49:21.662Z,94.90
2019-06-20T21:51:51.406Z,95.00
2019-06-20T21:54:21.038Z,95.10
2019-06-20T21:56:50.742Z,95.20
2019-06-20T21:59:20.501Z,94.60
2019-06-20T22:01:51.631Z,94.50
2019-06-20T22:04:21.709Z,95.00
2019-06-20T22:06:51.410Z,94.90
2019-06-20T22:09:21.468Z,95.00
2019-06-20T22:11:51.419Z,94.80
2019-06-20T22:14:21.469Z,94.40
2019-06-20T22:16:51.121Z,94.90
2019-06-20T22:19:21.259Z,95.30
2019-06-20T22:21:50.988Z,95.20
2019-06-20T22:24:20.969Z,95.00
2019-06-20T22:26:50.889Z,94.70
2019-06-20T22:29:21.193Z,95.00
2019-06-20T22:31:51.103Z,94.30
2019-06-20T22:34:20.798Z,94.20
2019-06-20T22:36:50.916Z,93.70
2019-06-20T22:39:20.701Z,94.50
2019-06-20T22:41:50.673Z,95.00
2019-06-20T22:44:20.547Z,95.40
2019-06-20T22:46:50.429Z,95.30
2019-06-20T22:49:20.351Z,95.30
2019-06-20T22:51:50.537Z,95.70
2019-06-20T22:54:20.203Z,96.20
2019-06-20T22:56:49.968Z,96.10
2019-06-20T22:59:20.040Z,96.20
2019-06-20T23:01:49.975Z,96.20
2019-06-20T23:04:19.826Z,96.20
2019-06-20T23:06:56.160Z,96.30
2019-06-20T23:09:26.428Z,96.30
2019-06-20T23:11:54.630Z,96.50
2019-06-20T23:14:24.277Z,96.30
2019-06-20T23:16:53.944Z,96.20
2019-06-20T23:19:23.914Z,96.20
2019-06-20T23:21:53.712Z,96.40
2019-06-20T23:24:23.436Z,95.80
2019-06-20T23:26:53.363Z,96.40
2019-06-20T23:29:23.066Z,96.30
2019-06-20T23:31:52.956Z,96.30
2019-06-20T23:34:22.688Z,96.20
2019-06-20T23:36:52.460Z,95.90
2019-06-20T23:39:22.241Z,96.00
2019-06-20T23:41:52.097Z,95.20
2019-06-20T23:44:22.096Z,95.40
2019-06-20T23:46:51.870Z,95.10
2019-06-20T23:49:21.714Z,95.90
2019-06-20T23:51:59.107Z,96.30
2019-06-20T23:54:28.794Z,96.50
2019-06-20T23:56:58.672Z,96.80
2019-06-20T23:59:28.428Z,96.70
